createdAt,value
2023-01-15T00:02:07.541Z,4.40
2023-01-15T00:04:34.541Z,4.30
2023-01-15T00:07:01.413Z,3.67
2023-01-15T00:09:28.298Z,3.40
2023-01-15T00:11:55.269Z,4.60
2023-01-15T00:14:22.182Z,3.47
2023-01-15T00:16:53.045Z,4.57
2023-01-15T00:19:19.862Z,3.80
2023-01-15T00:21:47.149Z,3.50
2023-01-15T00:24:32.645Z,4.23
2023-01-15T00:27:18.022Z,4.07
2023-01-15T00:29:46.750Z,4.17
2023-01-15T00:32:13.557Z,3.90
2023-01-15T00:34:40.481Z,3.33
2023-01-15T00:37:07.387Z,3.70
2023-01-15T00:39:35.714Z,4.30
2023-01-15T00:42:03.224Z,3.70
2023-01-15T00:44:33.784Z,4.33
2023-01-15T00:47:00.825Z,4.07
2023-01-15T00:49:27.602Z,4.33
2023-01-15T00:51:54.585Z,3.90
2023-01-15T00:54:21.642Z,4.30
2023-01-15T00:56:48.435Z,3.63
2023-01-15T00:59:15.490Z,4.37
2023-01-15T01:01:43.320Z,3.67
2023-01-15T01:04:11.054Z,4.77
2023-01-15T01:06:38.295Z,4.10
2023-01-15T01:09:05.055Z,4.20
2023-01-15T01:11:34.790Z,4.83
2023-01-15T01:14:02.659Z,4.00
2023-01-15T01:16:35.969Z,4.67
2023-01-15T01:19:04.951Z,4.17
2023-01-15T01:21:31.830Z,4.40
2023-01-15T01:23:59.847Z,4.33
2023-01-15T01:26:27.302Z,4.60
2023-01-15T01:28:56.017Z,5.37
2023-01-15T01:31:23.328Z,4.33
2023-01-15T01:33:50.757Z,4.67
2023-01-15T01:36:18.279Z,4.30
2023-01-15T01:38:50.210Z,5.13
2023-01-15T01:41:19.736Z,4.20
2023-01-15T01:44:00.271Z,4.67
2023-01-15T01:46:27.974Z,4.00
2023-01-15T01:48:57.913Z,4.00
2023-01-15T01:51:27.721Z,4.50
2023-01-15T01:53:55.780Z,4.50
2023-01-15T01:56:23.459Z,4.77
2023-01-15T01:58:51.889Z,5.03
2023-01-15T02:01:19.605Z,4.63
2023-01-15T02:03:46.692Z,5.10
2023-01-15T02:06:14.409Z,5.30
2023-01-15T02:08:41.452Z,4.33
2023-01-15T02:11:12.693Z,3.90
2023-01-15T02:13:41.386Z,4.37
2023-01-15T02:16:11.379Z,4.43
2023-01-15T02:18:49.689Z,4.60
2023-01-15T02:21:35.450Z,4.60
2023-01-15T02:24:17.712Z,4.03
2023-01-15T02:26:52.337Z,4.50
2023-01-15T02:29:23.756Z,4.47
2023-01-15T02:31:52.592Z,4.93
2023-01-15T02:34:25.615Z,3.60
2023-01-15T02:37:00.852Z,4.00
2023-01-15T02:39:28.828Z,4.70
2023-01-15T02:41:58.724Z,4.00
2023-01-15T02:44:31.096Z,4.50
2023-01-15T02:46:59.941Z,4.33
2023-01-15T02:49:28.801Z,4.17
2023-01-15T02:51:59.614Z,3.83
2023-01-15T02:54:27.680Z,3.63
2023-01-15T02:56:57.769Z,4.80
2023-01-15T02:59:27.482Z,3.47
2023-01-15T03:02:00.755Z,4.13
2023-01-15T03:04:30.953Z,3.33
2023-01-15T03:06:57.790Z,4.73
2023-01-15T03:09:24.783Z,3.87
2023-01-15T03:12:10.446Z,4.03
2023-01-15T03:14:58.120Z,3.63
2023-01-15T03:17:28.530Z,3.60
2023-01-15T03:20:02.334Z,3.23
2023-01-15T03:22:34.434Z,3.03
2023-01-15T03:25:03.958Z,2.77
2023-01-15T03:27:34.765Z,2.83
2023-01-15T03:30:11.990Z,3.20
2023-01-15T03:32:39.101Z,3.90
2023-01-15T03:35:26.387Z,3.93
2023-01-15T03:37:53.635Z,3.97
2023-01-15T03:40:23.967Z,3.60
2023-01-15T03:43:14.526Z,4.27
2023-01-15T03:45:43.295Z,3.23
2023-01-15T03:48:13.588Z,3.97
2023-01-15T03:50:41.810Z,4.33
2023-01-15T03:53:21.041Z,4.23
2023-01-15T03:56:08.853Z,3.47
2023-01-15T03:58:50.265Z,3.87
2023-01-15T04:01:25.898Z,4.80
2023-01-15T04:03:54.353Z,4.10
2023-01-15T04:06:26.660Z,4.27
2023-01-15T04:08:54.196Z,3.60
2023-01-15T04:11:24.742Z,4.33
2023-01-15T04:13:55.345Z,4.23
2023-01-15T04:16:48.323Z,4.00
2023-01-15T04:19:15.354Z,4.13
2023-01-15T04:21:50.356Z,4.87
2023-01-15T04:24:17.531Z,4.33
2023-01-15T04:26:44.382Z,5.17
2023-01-15T04:29:11.127Z,4.40
2023-01-15T04:31:38.025Z,5.00
2023-01-15T04:34:05.093Z,4.80
2023-01-15T04:36:35.510Z,4.40
2023-01-15T04:39:03.259Z,4.43
2023-01-15T04:41:48.840Z,5.10
2023-01-15T04:44:15.682Z,4.20
2023-01-15T04:46:43.324Z,4.80
2023-01-15T04:49:12.107Z,5.10
2023-01-15T04:51:40.265Z,4.73
2023-01-15T04:54:08.695Z,4.77
2023-01-15T04:56:54.508Z,5.10
2023-01-15T04:59:22.340Z,5.20
2023-01-15T05:02:02.297Z,4.77
2023-01-15T05:04:30.681Z,4.73
2023-01-15T05:06:57.493Z,4.57
2023-01-15T05:09:24.340Z,5.40
2023-01-15T05:11:51.116Z,5.57
2023-01-15T05:14:18.017Z,4.47
2023-01-15T05:16:44.793Z,5.53
2023-01-15T05:19:11.586Z,5.23
2023-01-15T05:21:41.188Z,5.63
2023-01-15T05:24:09.303Z,5.10
2023-01-15T05:26:36.654Z,5.10
2023-01-15T05:29:04.010Z,5.13
2023-01-15T05:31:31.121Z,5.07
2023-01-15T05:33:58.104Z,5.30
2023-01-15T05:36:26.453Z,4.80
2023-01-15T05:38:54.466Z,6.33
2023-01-15T05:41:41.136Z,5.47
2023-01-15T05:44:09.399Z,5.70
2023-01-15T05:46:37.334Z,5.73
2023-01-15T05:49:05.439Z,5.57
2023-01-15T05:51:32.315Z,5.43
2023-01-15T05:53:59.190Z,6.23
2023-01-15T05:56:26.291Z,5.73
2023-01-15T05:58:54.029Z,5.53
2023-01-15T06:01:21.208Z,6.63
2023-01-15T06:03:48.636Z,6.13
2023-01-15T06:06:16.642Z,6.00
2023-01-15T06:08:43.679Z,6.57
2023-01-15T06:11:11.451Z,6.17
2023-01-15T06:13:39.733Z,5.93
2023-01-15T06:16:07.355Z,6.37
2023-01-15T06:18:35.703Z,6.40
2023-01-15T06:21:03.754Z,5.27
2023-01-15T06:23:30.572Z,5.47
2023-01-15T06:26:01.720Z,6.20
2023-01-15T06:28:28.675Z,5.47
2023-01-15T06:30:55.411Z,7.00
2023-01-15T06:33:22.256Z,6.00
2023-01-15T06:35:49.108Z,5.80
2023-01-15T06:38:15.896Z,6.53
2023-01-15T06:40:42.863Z,6.50
2023-01-15T06:43:28.946Z,7.03
2023-01-15T06:46:15.238Z,7.13
2023-01-15T06:48:43.408Z,6.60
2023-01-15T06:51:10.223Z,6.23
2023-01-15T06:53:37.031Z,7.23
2023-01-15T06:56:03.987Z,6.17
2023-01-15T06:58:30.725Z,6.40
2023-01-15T07:00:57.665Z,6.10
2023-01-15T07:03:24.633Z,6.20
2023-01-15T07:05:51.524Z,5.87
2023-01-15T07:08:18.320Z,5.07
2023-01-15T07:10:45.268Z,6.30
2023-01-15T07:13:12.109Z,6.10
2023-01-15T07:15:39.880Z,6.40
2023-01-15T07:18:07.159Z,6.20
2023-01-15T07:20:33.986Z,5.17
2023-01-15T07:23:00.727Z,5.80
2023-01-15T07:25:27.603Z,6.33
2023-01-15T07:27:54.371Z,5.90
2023-01-15T07:30:21.570Z,5.90
2023-01-15T07:32:48.486Z,5.83
2023-01-15T07:35:15.368Z,5.37
2023-01-15T07:37:44.257Z,5.80
2023-01-15T07:40:11.522Z,5.77
2023-01-15T07:42:57.045Z,4.20
2023-01-15T07:45:42.379Z,5.10
2023-01-15T07:48:29.483Z,5.97
2023-01-15T07:50:56.329Z,5.47
2023-01-15T07:53:23.096Z,5.20
2023-01-15T07:55:49.975Z,5.90
2023-01-15T07:58:16.879Z,5.53
2023-01-15T08:00:43.651Z,5.77
2023-01-15T08:03:10.483Z,5.47
2023-01-15T08:05:37.374Z,5.80
2023-01-15T08:08:04.212Z,5.20
2023-01-15T08:10:31.144Z,5.43
2023-01-15T08:13:16.197Z,5.10
2023-01-15T08:15:44.250Z,5.10
2023-01-15T08:18:11.364Z,6.73
2023-01-15T08:20:38.172Z,6.33
2023-01-15T08:23:05.026Z,9.23
2023-01-15T08:25:31.965Z,7.83
2023-01-15T08:28:00.993Z,5.50
2023-01-15T08:30:28.042Z,5.03
2023-01-15T08:32:59.369Z,6.43
2023-01-15T08:35:26.241Z,6.20
2023-01-15T08:37:53.074Z,6.20
2023-01-15T08:40:19.978Z,6.83
2023-01-15T08:42:46.855Z,4.97
2023-01-15T08:45:14.405Z,5.83
2023-01-15T08:47:41.285Z,5.03
2023-01-15T08:50:09.661Z,5.33
2023-01-15T08:52:38.331Z,5.23
2023-01-15T08:55:05.435Z,5.57
2023-01-15T08:57:32.326Z,4.70
2023-01-15T08:59:59.064Z,5.03
2023-01-15T09:02:26.009Z,5.57
2023-01-15T09:04:52.974Z,4.60
2023-01-15T09:07:20.331Z,4.93
2023-01-15T09:09:47.260Z,5.13
2023-01-15T09:12:14.399Z,4.70
2023-01-15T09:14:58.606Z,4.77
2023-01-15T09:17:28.320Z,4.33
2023-01-15T09:19:55.151Z,4.23
2023-01-15T09:22:22.002Z,4.17
2023-01-15T09:24:48.745Z,4.50
2023-01-15T09:27:15.653Z,3.83
2023-01-15T09:29:42.391Z,3.77
2023-01-15T09:32:10.703Z,3.00
2023-01-15T09:34:37.549Z,3.70
2023-01-15T09:37:04.407Z,3.97
2023-01-15T09:39:31.552Z,3.30
2023-01-15T09:42:10.576Z,3.60
2023-01-15T09:44:41.232Z,3.57
2023-01-15T09:47:14.087Z,3.97
2023-01-15T09:49:49.052Z,3.97
2023-01-15T09:52:21.676Z,3.43
2023-01-15T09:54:51.561Z,3.20
2023-01-15T09:57:19.646Z,3.23
2023-01-15T09:59:48.049Z,3.17
2023-01-15T10:02:17.783Z,3.40
2023-01-15T10:04:47.691Z,3.50
2023-01-15T10:07:28.784Z,2.54
2023-01-15T10:10:05.165Z,3.03
2023-01-15T10:12:35.788Z,3.13
2023-01-15T10:15:11.655Z,2.50
2023-01-15T10:17:47.691Z,3.27
2023-01-15T10:20:27.886Z,2.20
2023-01-15T10:22:59.574Z,1.80
2023-01-15T10:25:29.132Z,3.47
2023-01-15T10:27:59.412Z,2.77
2023-01-15T10:30:42.070Z,3.40
2023-01-15T10:33:38.334Z,2.50
2023-01-15T10:36:08.662Z,2.37
2023-01-15T10:38:43.552Z,2.77
2023-01-15T10:41:31.279Z,1.87
2023-01-15T10:44:18.382Z,2.90
2023-01-15T10:46:50.171Z,3.10
2023-01-15T10:49:18.158Z,3.40
2023-01-15T10:51:46.469Z,4.10
2023-01-15T10:54:25.129Z,3.43
2023-01-15T10:56:51.951Z,3.97
2023-01-15T10:59:18.860Z,3.30
2023-01-15T11:01:46.401Z,4.23
2023-01-15T11:04:15.862Z,3.73
2023-01-15T11:06:42.759Z,3.83
2023-01-15T11:09:17.845Z,4.00
2023-01-15T11:12:01.917Z,3.13
2023-01-15T11:14:51.635Z,3.37
2023-01-15T11:17:39.095Z,4.60
2023-01-15T11:20:14.664Z,3.70
2023-01-15T11:22:43.627Z,4.00
2023-01-15T11:25:12.029Z,4.30
2023-01-15T11:27:39.205Z,4.47
2023-01-15T11:30:07.386Z,4.50
2023-01-15T11:32:35.543Z,4.00
2023-01-15T11:35:04.377Z,3.77
2023-01-15T11:37:31.315Z,4.00
2023-01-15T11:40:05.664Z,4.67
2023-01-15T11:42:51.110Z,4.03
2023-01-15T11:45:38.148Z,5.27
2023-01-15T11:48:33.496Z,4.87
2023-01-15T11:51:07.922Z,5.27
2023-01-15T11:53:48.904Z,5.17
2023-01-15T11:56:20.722Z,5.10
2023-01-15T11:58:52.228Z,4.20
2023-01-15T12:01:26.248Z,3.57
2023-01-15T12:03:53.491Z,3.93
2023-01-15T12:06:21.446Z,4.43
2023-01-15T12:08:54.388Z,4.90
2023-01-15T12:11:30.401Z,4.97
2023-01-15T12:14:02.625Z,4.50
2023-01-15T12:16:29.439Z,4.20
2023-01-15T12:19:10.364Z,5.07
2023-01-15T12:21:44.829Z,5.17
2023-01-15T12:24:30.256Z,4.27
2023-01-15T12:27:00.312Z,5.13
2023-01-15T12:29:29.624Z,4.93
2023-01-15T12:32:01.812Z,3.90
2023-01-15T12:34:32.958Z,5.47
2023-01-15T12:37:22.692Z,4.00
2023-01-15T12:39:55.821Z,5.03
2023-01-15T12:42:42.422Z,4.93
2023-01-15T12:45:15.199Z,5.40
2023-01-15T12:47:54.474Z,5.73
2023-01-15T12:50:45.301Z,5.50
2023-01-15T12:53:24.305Z,5.33
2023-01-15T12:55:55.067Z,5.33
2023-01-15T12:58:34.177Z,4.73
2023-01-15T13:01:13.827Z,5.00
2023-01-15T13:03:53.432Z,5.73
2023-01-15T13:06:20.794Z,4.90
2023-01-15T13:09:00.984Z,4.47
2023-01-15T13:11:27.882Z,5.00
2023-01-15T13:14:03.973Z,5.37
2023-01-15T13:16:38.059Z,5.00
2023-01-15T13:19:30.440Z,5.33
2023-01-15T13:22:00.331Z,5.23
2023-01-15T13:24:27.151Z,6.10
2023-01-15T13:27:00.040Z,5.20
2023-01-15T13:29:29.993Z,5.70
2023-01-15T13:32:15.502Z,6.20
2023-01-15T13:35:01.281Z,5.07
2023-01-15T13:37:29.911Z,6.33
2023-01-15T13:40:03.799Z,5.40
2023-01-15T13:42:34.635Z,4.43
2023-01-15T13:45:07.436Z,5.53
2023-01-15T13:47:36.532Z,5.50
2023-01-15T13:50:05.339Z,4.77
2023-01-15T13:52:33.539Z,4.63
2023-01-15T13:55:07.610Z,5.43
2023-01-15T13:57:38.938Z,5.67
2023-01-15T14:00:07.212Z,5.80
2023-01-15T14:02:39.439Z,5.80
2023-01-15T14:05:23.883Z,6.43
2023-01-15T14:07:50.846Z,5.67
2023-01-15T14:10:17.591Z,5.37
2023-01-15T14:13:00.343Z,6.37
2023-01-15T14:15:31.528Z,6.10
2023-01-15T14:18:08.873Z,5.83
2023-01-15T14:20:47.060Z,7.00
2023-01-15T14:23:23.143Z,7.13
2023-01-15T14:25:50.507Z,8.10
2023-01-15T14:28:32.553Z,7.67
2023-01-15T14:31:17.709Z,7.40
2023-01-15T14:33:51.302Z,8.03
2023-01-15T14:36:19.668Z,8.07
2023-01-15T14:38:52.221Z,7.53
2023-01-15T14:41:26.788Z,7.80
2023-01-15T14:43:54.039Z,7.87
2023-01-15T14:46:34.609Z,7.93
2023-01-15T14:49:02.280Z,8.57
2023-01-15T14:51:32.353Z,7.60
2023-01-15T14:53:59.449Z,7.53
2023-01-15T14:56:35.236Z,7.93
2023-01-15T14:59:01.998Z,7.97
2023-01-15T15:01:35.185Z,7.77
2023-01-15T15:04:08.660Z,7.40
2023-01-15T15:06:45.866Z,6.67
2023-01-15T15:09:13.888Z,6.87
2023-01-15T15:12:20.179Z,6.33
2023-01-15T15:14:58.537Z,5.73
2023-01-15T15:17:34.905Z,6.17
2023-01-15T15:20:09.248Z,6.17
2023-01-15T15:22:38.584Z,6.63
2023-01-15T15:25:10.961Z,8.67
2023-01-15T15:27:37.847Z,6.97
2023-01-15T15:30:06.329Z,8.07
2023-01-15T15:32:40.231Z,8.27
2023-01-15T15:35:19.894Z,8.07
2023-01-15T15:37:46.848Z,7.63
2023-01-15T15:40:20.529Z,9.17
2023-01-15T15:43:08.656Z,8.77
2023-01-15T15:45:54.186Z,7.87
2023-01-15T15:48:43.066Z,8.20
2023-01-15T15:51:28.718Z,8.57
2023-01-15T15:54:05.009Z,8.80
2023-01-15T15:56:33.384Z,8.37
2023-01-15T15:59:00.456Z,7.97
2023-01-15T16:01:27.348Z,8.50
2023-01-15T16:03:55.305Z,8.67
2023-01-15T16:06:24.531Z,9.27
2023-01-15T16:09:04.955Z,9.30
2023-01-15T16:11:32.793Z,10.27
2023-01-15T16:14:01.182Z,9.37
2023-01-15T16:16:28.550Z,10.03
2023-01-15T16:18:57.160Z,10.43
2023-01-15T16:21:23.966Z,9.73
2023-01-15T16:24:03.817Z,9.57
2023-01-15T16:26:52.887Z,12.20
2023-01-15T16:29:21.826Z,10.40
2023-01-15T16:31:48.867Z,9.90
2023-01-15T16:34:18.607Z,8.47
2023-01-15T16:36:45.941Z,10.43
2023-01-15T16:39:31.038Z,8.43
2023-01-15T16:41:58.693Z,9.27
2023-01-15T16:44:26.965Z,7.70
2023-01-15T16:46:55.788Z,7.00
2023-01-15T16:49:22.641Z,6.40
2023-01-15T16:51:50.118Z,5.93
2023-01-15T16:54:32.251Z,7.20
2023-01-15T16:57:00.776Z,6.57
2023-01-15T16:59:27.504Z,6.60
2023-01-15T17:02:23.612Z,5.73
2023-01-15T17:04:51.971Z,4.97
2023-01-15T17:07:40.240Z,5.33
2023-01-15T17:10:18.781Z,5.23
2023-01-15T17:12:45.689Z,5.17
2023-01-15T17:15:15.288Z,5.67
2023-01-15T17:17:42.776Z,5.93
2023-01-15T17:20:10.727Z,6.93
2023-01-15T17:22:37.658Z,7.50
2023-01-15T17:25:21.197Z,6.23
2023-01-15T17:27:48.136Z,9.23
2023-01-15T17:30:15.339Z,5.13
2023-01-15T17:32:42.534Z,5.23
2023-01-15T17:35:18.315Z,6.17
2023-01-15T17:37:45.075Z,7.80
2023-01-15T17:40:12.286Z,14.63
2023-01-15T17:42:39.053Z,8.00
2023-01-15T17:45:06.129Z,4.43
2023-01-15T17:47:32.932Z,3.97
2023-01-15T17:49:59.916Z,3.80
2023-01-15T17:52:26.816Z,3.70
2023-01-15T17:55:29.020Z,3.60
2023-01-15T17:58:14.644Z,3.37
2023-01-15T18:01:00.134Z,2.93
2023-01-15T18:03:45.380Z,3.97
2023-01-15T18:06:13.141Z,3.30
2023-01-15T18:08:41.080Z,3.50
2023-01-15T18:11:07.946Z,3.30
2023-01-15T18:13:35.292Z,3.40
2023-01-15T18:16:02.062Z,3.47
2023-01-15T18:18:28.931Z,4.27
2023-01-15T18:20:55.738Z,4.30
2023-01-15T18:23:23.213Z,4.20
2023-01-15T18:25:50.101Z,5.20
2023-01-15T18:28:16.942Z,5.30
2023-01-15T18:30:43.745Z,5.70
2023-01-15T18:33:10.609Z,5.70
2023-01-15T18:35:37.351Z,6.73
2023-01-15T18:38:04.156Z,6.37
2023-01-15T18:40:31.584Z,6.80
2023-01-15T18:43:17.092Z,6.73
2023-01-15T18:46:06.411Z,7.77
2023-01-15T18:48:33.460Z,7.73
2023-01-15T18:51:10.017Z,8.23
2023-01-15T18:53:36.870Z,8.30
2023-01-15T18:56:04.176Z,7.50
2023-01-15T18:58:31.094Z,7.80
2023-01-15T19:00:58.068Z,7.27
2023-01-15T19:03:26.139Z,9.20
2023-01-15T19:05:53.447Z,6.97
2023-01-15T19:08:20.209Z,7.20
2023-01-15T19:10:47.080Z,7.20
2023-01-15T19:13:18.216Z,5.37
2023-01-15T19:16:03.511Z,6.17
2023-01-15T19:18:42.328Z,5.17
2023-01-15T19:21:10.712Z,5.50
2023-01-15T19:23:37.449Z,5.17
2023-01-15T19:26:04.618Z,5.73
2023-01-15T19:28:31.488Z,5.40
2023-01-15T19:31:16.546Z,6.53
2023-01-15T19:33:43.378Z,4.63
2023-01-15T19:36:10.386Z,5.60
2023-01-15T19:38:39.922Z,5.43
2023-01-15T19:41:31.405Z,6.33
2023-01-15T19:44:16.667Z,5.50
2023-01-15T19:47:02.191Z,6.23
2023-01-15T19:49:50.549Z,6.37
2023-01-15T19:52:35.359Z,5.80
2023-01-15T19:55:07.867Z,5.60
2023-01-15T19:57:34.676Z,7.00
2023-01-15T20:00:01.459Z,6.93
2023-01-15T20:02:28.933Z,5.43
2023-01-15T20:04:55.710Z,6.97
2023-01-15T20:07:22.619Z,5.60
2023-01-15T20:09:49.437Z,5.80
2023-01-15T20:12:34.856Z,4.90
2023-01-15T20:15:01.706Z,4.77
2023-01-15T20:17:29.556Z,4.67
2023-01-15T20:19:56.845Z,5.50
2023-01-15T20:22:27.191Z,4.80
2023-01-15T20:24:54.041Z,4.97
2023-01-15T20:27:20.931Z,5.00
2023-01-15T20:29:59.392Z,5.13
2023-01-15T20:32:26.728Z,5.63
2023-01-15T20:34:53.680Z,4.97
2023-01-15T20:37:20.491Z,4.90
2023-01-15T20:39:47.496Z,5.40
2023-01-15T20:42:32.697Z,5.13
2023-01-15T20:45:03.230Z,5.10
2023-01-15T20:47:48.963Z,5.03
2023-01-15T20:50:16.968Z,5.60
2023-01-15T20:52:47.592Z,5.83
2023-01-15T20:55:14.849Z,5.30
2023-01-15T20:57:41.945Z,4.80
2023-01-15T21:00:11.123Z,5.30
2023-01-15T21:02:38.123Z,5.90
2023-01-15T21:05:05.516Z,7.57
2023-01-15T21:07:32.562Z,5.07
2023-01-15T21:09:59.486Z,9.37
2023-01-15T21:12:26.223Z,10.00
2023-01-15T21:14:53.072Z,6.33
2023-01-15T21:17:19.923Z,5.73
2023-01-15T21:19:46.791Z,8.07
2023-01-15T21:22:13.535Z,10.10
2023-01-15T21:24:40.670Z,14.67
2023-01-15T21:27:07.447Z,7.43
2023-01-15T21:29:34.343Z,5.73
2023-01-15T21:32:01.116Z,6.23
2023-01-15T21:34:28.035Z,5.93
2023-01-15T21:36:54.907Z,6.07
2023-01-15T21:39:21.814Z,5.80
2023-01-15T21:42:08.923Z,5.63
2023-01-15T21:44:39.048Z,6.03
2023-01-15T21:47:06.947Z,6.67
2023-01-15T21:49:34.147Z,6.43
2023-01-15T21:52:01.870Z,6.17
2023-01-15T21:54:29.476Z,5.90
2023-01-15T21:56:56.739Z,6.67
2023-01-15T21:59:23.880Z,7.07
2023-01-15T22:01:53.514Z,5.37
2023-01-15T22:04:20.328Z,6.83
2023-01-15T22:06:47.299Z,4.93
2023-01-15T22:09:14.164Z,4.83
2023-01-15T22:11:46.773Z,5.83
2023-01-15T22:14:17.941Z,6.17
2023-01-15T22:16:46.068Z,5.97
2023-01-15T22:19:19.678Z,5.57
2023-01-15T22:21:49.943Z,5.63
2023-01-15T22:24:17.295Z,6.13
2023-01-15T22:26:44.048Z,6.87
2023-01-15T22:29:11.238Z,5.53
2023-01-15T22:31:41.583Z,6.97
2023-01-15T22:34:08.948Z,7.40
2023-01-15T22:36:38.373Z,7.97
2023-01-15T22:39:05.948Z,7.17
2023-01-15T22:41:51.869Z,8.33
2023-01-15T22:44:19.898Z,7.57
2023-01-15T22:46:46.687Z,10.30
2023-01-15T22:49:14.276Z,7.33
2023-01-15T22:51:41.798Z,5.90
2023-01-15T22:54:09.188Z,7.10
2023-01-15T22:56:36.453Z,8.50
2023-01-15T22:59:03.859Z,10.90
2023-01-15T23:01:31.005Z,8.90
2023-01-15T23:03:57.872Z,6.30
2023-01-15T23:06:27.268Z,5.90
2023-01-15T23:09:00.814Z,5.10
2023-01-15T23:11:28.240Z,4.80
2023-01-15T23:13:55.316Z,5.20
2023-01-15T23:16:22.293Z,5.10
2023-01-15T23:18:49.639Z,5.20
2023-01-15T23:21:18.412Z,4.60
2023-01-15T23:23:45.508Z,5.00
2023-01-15T23:26:13.722Z,6.10
2023-01-15T23:28:40.744Z,5.13
2023-01-15T23:31:07.937Z,4.67
2023-01-15T23:33:34.700Z,5.17
2023-01-15T23:36:01.573Z,5.00
2023-01-15T23:38:28.889Z,5.07
2023-01-15T23:40:55.645Z,4.60
2023-01-15T23:43:40.830Z,5.10
2023-01-15T23:46:29.382Z,4.80
2023-01-15T23:48:56.321Z,5.20
2023-01-15T23:51:23.084Z,5.00
2023-01-15T23:53:49.903Z,4.43
2023-01-15T23:56:16.759Z,4.70
2023-01-15T23:58:45.276Z,5.20
